sensor_id;sensor_type;location;lat;lon;timestamp;temperature;humidity
19385;DHT22;9828;54.122;17.974;2023-03-14T00:04:09;8.20;99.90
19385;DHT22;9828;54.122;17.974;2023-03-14T00:09:30;8.30;99.90
19385;DHT22;9828;54.122;17.974;2023-03-14T00:14:51;8.30;99.90
19385;DHT22;9828;54.122;17.974;2023-03-14T00:20:12;8.30;99.90
19385;DHT22;9828;54.122;17.974;2023-03-14T00:25:34;8.30;99.90
19385;DHT22;9828;54.122;17.974;2023-03-14T00:30:55;8.30;99.90
19385;DHT22;9828;54.122;17.974;2023-03-14T00:36:17;8.20;99.90
19385;DHT22;9828;54.122;17.974;2023-03-14T00:41:38;8.30;99.90
19385;DHT22;9828;54.122;17.974;2023-03-14T00:46:59;8.20;99.90
19385;DHT22;9828;54.122;17.974;2023-03-14T00:52:21;8.20;99.90
19385;DHT22;9828;54.122;17.974;2023-03-14T00:57:42;8.20;99.90
19385;DHT22;9828;54.122;17.974;2023-03-14T01:03:03;8.20;99.90
19385;DHT22;9828;54.122;17.974;2023-03-14T01:08:25;8.10;99.90
19385;DHT22;9828;54.122;17.974;2023-03-14T01:13:47;8.10;99.90
19385;DHT22;9828;54.122;17.974;2023-03-14T01:19:09;8.10;99.90
19385;DHT22;9828;54.122;17.974;2023-03-14T01:24:30;8.10;99.90
19385;DHT22;9828;54.122;17.974;2023-03-14T01:29:51;8.10;99.90
19385;DHT22;9828;54.122;17.974;2023-03-14T01:35:12;8.10;99.90
19385;DHT22;9828;54.122;17.974;2023-03-14T01:40:42;8.10;99.90
19385;DHT22;9828;54.122;17.974;2023-03-14T01:57:44;8.10;99.90
19385;DHT22;9828;54.122;17.974;2023-03-14T02:03:11;8.10;99.90
19385;DHT22;9828;54.122;17.974;2023-03-14T02:08:35;8.10;99.90
19385;DHT22;9828;54.122;17.974;2023-03-14T02:14:02;8.10;99.90
19385;DHT22;9828;54.122;17.974;2023-03-14T02:31:11;8.20;99.90
19385;DHT22;9828;54.122;17.974;2023-03-14T02:36:33;8.20;99.90
19385;DHT22;9828;54.122;17.974;2023-03-14T02:41:55;8.20;99.90
19385;DHT22;9828;54.122;17.974;2023-03-14T02:47:16;8.20;99.90
19385;DHT22;9828;54.122;17.974;2023-03-14T02:52:40;8.10;99.90
19385;DHT22;9828;54.122;17.974;2023-03-14T02:58:01;8.10;99.90
19385;DHT22;9828;54.122;17.974;2023-03-14T03:03:22;8.20;99.90
19385;DHT22;9828;54.122;17.974;2023-03-14T03:08:44;8.20;99.90
19385;DHT22;9828;54.122;17.974;2023-03-14T03:14:05;8.20;99.90
19385;DHT22;9828;54.122;17.974;2023-03-14T03:19:27;8.30;99.90
19385;DHT22;9828;54.122;17.974;2023-03-14T03:24:48;8.30;99.90
19385;DHT22;9828;54.122;17.974;2023-03-14T03:30:10;8.40;99.90
19385;DHT22;9828;54.122;17.974;2023-03-14T03:35:32;8.40;99.90
19385;DHT22;9828;54.122;17.974;2023-03-14T03:40:54;8.50;99.90
19385;DHT22;9828;54.122;17.974;2023-03-14T03:46:18;8.50;99.90
19385;DHT22;9828;54.122;17.974;2023-03-14T03:51:40;8.50;99.90
19385;DHT22;9828;54.122;17.974;2023-03-14T03:57:01;8.50;99.90
19385;DHT22;9828;54.122;17.974;2023-03-14T04:02:22;8.50;99.90
19385;DHT22;9828;54.122;17.974;2023-03-14T04:07:45;8.50;99.90
19385;DHT22;9828;54.122;17.974;2023-03-14T04:13:11;8.60;99.90
19385;DHT22;9828;54.122;17.974;2023-03-14T04:18:33;8.60;99.90
19385;DHT22;9828;54.122;17.974;2023-03-14T04:23:55;8.60;99.90
19385;DHT22;9828;54.122;17.974;2023-03-14T04:29:17;8.50;99.90
19385;DHT22;9828;54.122;17.974;2023-03-14T04:34:39;8.50;99.90
19385;DHT22;9828;54.122;17.974;2023-03-14T04:40:01;8.50;99.90
19385;DHT22;9828;54.122;17.974;2023-03-14T04:45:25;8.50;99.90
19385;DHT22;9828;54.122;17.974;2023-03-14T04:50:49;8.50;99.90
19385;DHT22;9828;54.122;17.974;2023-03-14T04:56:11;8.40;99.90
19385;DHT22;9828;54.122;17.974;2023-03-14T05:01:36;8.40;99.90
19385;DHT22;9828;54.122;17.974;2023-03-14T05:07:14;8.40;99.90
19385;DHT22;9828;54.122;17.974;2023-03-14T05:12:52;8.30;99.90
19385;DHT22;9828;54.122;17.974;2023-03-14T05:18:24;8.30;99.90
19385;DHT22;9828;54.122;17.974;2023-03-14T05:23:58;8.30;99.90
19385;DHT22;9828;54.122;17.974;2023-03-14T05:29:40;8.40;99.90
19385;DHT22;9828;54.122;17.974;2023-03-14T05:35:20;8.30;99.90
19385;DHT22;9828;54.122;17.974;2023-03-14T05:40:57;8.40;99.90
19385;DHT22;9828;54.122;17.974;2023-03-14T05:46:48;8.40;99.90
19385;DHT22;9828;54.122;17.974;2023-03-14T05:52:28;8.50;99.90
19385;DHT22;9828;54.122;17.974;2023-03-14T05:58:02;8.60;99.90
19385;DHT22;9828;54.122;17.974;2023-03-14T06:03:47;8.70;99.90
19385;DHT22;9828;54.122;17.974;2023-03-14T06:09:08;8.70;99.90
19385;DHT22;9828;54.122;17.974;2023-03-14T06:14:32;8.80;99.90
19385;DHT22;9828;54.122;17.974;2023-03-14T06:19:53;8.90;99.90
19385;DHT22;9828;54.122;17.974;2023-03-14T06:25:15;8.90;99.90
19385;DHT22;9828;54.122;17.974;2023-03-14T06:30:39;9.00;99.90
19385;DHT22;9828;54.122;17.974;2023-03-14T06:36:03;9.10;99.90
19385;DHT22;9828;54.122;17.974;2023-03-14T06:41:25;9.10;99.90
19385;DHT22;9828;54.122;17.974;2023-03-14T06:46:47;9.10;99.90
19385;DHT22;9828;54.122;17.974;2023-03-14T06:52:08;9.10;99.90
19385;DHT22;9828;54.122;17.974;2023-03-14T06:57:30;9.10;99.90
19385;DHT22;9828;54.122;17.974;2023-03-14T07:02:51;9.10;99.90
19385;DHT22;9828;54.122;17.974;2023-03-14T07:08:18;9.20;99.90
19385;DHT22;9828;54.122;17.974;2023-03-14T07:13:40;9.20;99.90
19385;DHT22;9828;54.122;17.974;2023-03-14T07:19:01;9.30;99.90
19385;DHT22;9828;54.122;17.974;2023-03-14T07:24:24;9.40;99.90
19385;DHT22;9828;54.122;17.974;2023-03-14T07:29:46;9.50;99.90
19385;DHT22;9828;54.122;17.974;2023-03-14T07:35:08;9.60;99.90
19385;DHT22;9828;54.122;17.974;2023-03-14T07:40:32;9.60;99.90
19385;DHT22;9828;54.122;17.974;2023-03-14T07:45:54;9.80;99.90
19385;DHT22;9828;54.122;17.974;2023-03-14T07:51:19;9.90;99.90
19385;DHT22;9828;54.122;17.974;2023-03-14T07:56:40;10.10;99.90
19385;DHT22;9828;54.122;17.974;2023-03-14T08:02:01;10.20;99.90
19385;DHT22;9828;54.122;17.974;2023-03-14T08:07:22;10.30;99.90
19385;DHT22;9828;54.122;17.974;2023-03-14T08:12:44;10.20;99.90
19385;DHT22;9828;54.122;17.974;2023-03-14T08:18:05;10.30;99.90
19385;DHT22;9828;54.122;17.974;2023-03-14T08:23:27;10.30;99.90
19385;DHT22;9828;54.122;17.974;2023-03-14T08:28:48;10.30;99.90
19385;DHT22;9828;54.122;17.974;2023-03-14T08:34:09;10.20;99.90
19385;DHT22;9828;54.122;17.974;2023-03-14T08:39:30;10.30;99.90
19385;DHT22;9828;54.122;17.974;2023-03-14T08:44:52;10.40;99.90
19385;DHT22;9828;54.122;17.974;2023-03-14T08:50:13;10.50;99.90
19385;DHT22;9828;54.122;17.974;2023-03-14T08:55:36;10.60;99.90
19385;DHT22;9828;54.122;17.974;2023-03-14T09:00:57;10.60;99.90
19385;DHT22;9828;54.122;17.974;2023-03-14T09:06:18;10.60;99.90
19385;DHT22;9828;54.122;17.974;2023-03-14T09:11:40;10.50;99.90
19385;DHT22;9828;54.122;17.974;2023-03-14T09:17:02;10.40;99.90
19385;DHT22;9828;54.122;17.974;2023-03-14T09:22:24;10.40;99.90
19385;DHT22;9828;54.122;17.974;2023-03-14T09:27:46;10.40;99.90
19385;DHT22;9828;54.122;17.974;2023-03-14T09:33:07;10.40;99.90
19385;DHT22;9828;54.122;17.974;2023-03-14T09:38:28;10.40;99.90
19385;DHT22;9828;54.122;17.974;2023-03-14T09:44:00;10.50;99.90
19385;DHT22;9828;54.122;17.974;2023-03-14T09:49:29;10.70;99.90
19385;DHT22;9828;54.122;17.974;2023-03-14T09:54:58;10.90;99.90
19385;DHT22;9828;54.122;17.974;2023-03-14T10:00:23;10.90;99.90
19385;DHT22;9828;54.122;17.974;2023-03-14T10:05:44;10.90;99.90
19385;DHT22;9828;54.122;17.974;2023-03-14T10:11:09;10.90;99.90
19385;DHT22;9828;54.122;17.974;2023-03-14T10:16:42;10.90;99.90
19385;DHT22;9828;54.122;17.974;2023-03-14T10:22:04;10.80;99.90
19385;DHT22;9828;54.122;17.974;2023-03-14T10:27:34;10.80;99.90
19385;DHT22;9828;54.122;17.974;2023-03-14T10:32:55;10.70;99.90
19385;DHT22;9828;54.122;17.974;2023-03-14T10:38:17;10.70;99.90
19385;DHT22;9828;54.122;17.974;2023-03-14T10:43:38;10.70;99.90
19385;DHT22;9828;54.122;17.974;2023-03-14T10:49:04;10.70;99.90
19385;DHT22;9828;54.122;17.974;2023-03-14T10:54:30;10.80;99.90
19385;DHT22;9828;54.122;17.974;2023-03-14T10:59:52;10.90;99.90
19385;DHT22;9828;54.122;17.974;2023-03-14T11:10:53;11.60;99.90
19385;DHT22;9828;54.122;17.974;2023-03-14T11:16:34;11.60;99.90
19385;DHT22;9828;54.122;17.974;2023-03-14T11:27:55;11.40;99.90
19385;DHT22;9828;54.122;17.974;2023-03-14T11:38:48;12.30;99.90
19385;DHT22;9828;54.122;17.974;2023-03-14T11:44:32;13.80;99.90
19385;DHT22;9828;54.122;17.974;2023-03-14T11:50:15;14.80;99.90
19385;DHT22;9828;54.122;17.974;2023-03-14T11:55:40;14.70;99.90
19385;DHT22;9828;54.122;17.974;2023-03-14T12:01:08;14.10;99.90
19385;DHT22;9828;54.122;17.974;2023-03-14T12:06:44;13.90;99.90
19385;DHT22;9828;54.122;17.974;2023-03-14T12:12:14;13.80;99.90
19385;DHT22;9828;54.122;17.974;2023-03-14T12:17:41;14.00;99.90
19385;DHT22;9828;54.122;17.974;2023-03-14T12:23:05;13.80;99.90
19385;DHT22;9828;54.122;17.974;2023-03-14T12:28:31;14.00;99.90
19385;DHT22;9828;54.122;17.974;2023-03-14T12:34:02;14.60;99.90
19385;DHT22;9828;54.122;17.974;2023-03-14T12:40:16;15.00;99.90
19385;DHT22;9828;54.122;17.974;2023-03-14T12:45:29;14.60;99.90
19385;DHT22;9828;54.122;17.974;2023-03-14T12:50:56;13.80;99.90
19385;DHT22;9828;54.122;17.974;2023-03-14T12:56:55;13.40;99.90
19385;DHT22;9828;54.122;17.974;2023-03-14T13:59:40;13.70;99.90
19385;DHT22;9828;54.122;17.974;2023-03-14T14:05:01;13.50;99.90
19385;DHT22;9828;54.122;17.974;2023-03-14T14:10:36;13.40;99.90
19385;DHT22;9828;54.122;17.974;2023-03-14T14:15:59;13.20;99.90
19385;DHT22;9828;54.122;17.974;2023-03-14T14:21:21;13.00;99.90
19385;DHT22;9828;54.122;17.974;2023-03-14T14:27:24;12.80;99.90
19385;DHT22;9828;54.122;17.974;2023-03-14T14:32:49;12.80;99.90
19385;DHT22;9828;54.122;17.974;2023-03-14T14:38:16;12.60;99.90
19385;DHT22;9828;54.122;17.974;2023-03-14T14:43:39;12.70;99.90
19385;DHT22;9828;54.122;17.974;2023-03-14T14:49:06;12.70;99.90
19385;DHT22;9828;54.122;17.974;2023-03-14T14:54:57;12.70;99.90
19385;DHT22;9828;54.122;17.974;2023-03-14T15:00:27;12.60;99.90
19385;DHT22;9828;54.122;17.974;2023-03-14T15:05:48;12.40;99.90
19385;DHT22;9828;54.122;17.974;2023-03-14T15:11:24;12.20;99.90
19385;DHT22;9828;54.122;17.974;2023-03-14T15:16:45;12.10;99.90
19385;DHT22;9828;54.122;17.974;2023-03-14T15:22:13;11.90;99.90
19385;DHT22;9828;54.122;17.974;2023-03-14T15:27:35;11.80;99.90
19385;DHT22;9828;54.122;17.974;2023-03-14T15:32:56;11.50;99.90
19385;DHT22;9828;54.122;17.974;2023-03-14T15:38:20;11.30;99.90
19385;DHT22;9828;54.122;17.974;2023-03-14T15:43:43;11.20;99.90
19385;DHT22;9828;54.122;17.974;2023-03-14T15:49:04;11.20;99.90
19385;DHT22;9828;54.122;17.974;2023-03-14T15:54:26;11.30;99.90
19385;DHT22;9828;54.122;17.974;2023-03-14T15:59:50;11.20;99.90
19385;DHT22;9828;54.122;17.974;2023-03-14T16:05:12;11.20;99.90
19385;DHT22;9828;54.122;17.974;2023-03-14T16:10:34;11.20;99.90
19385;DHT22;9828;54.122;17.974;2023-03-14T16:16:00;11.10;99.90
19385;DHT22;9828;54.122;17.974;2023-03-14T16:21:22;11.00;99.90
19385;DHT22;9828;54.122;17.974;2023-03-14T16:26:43;10.90;41.80
19385;DHT22;9828;54.122;17.974;2023-03-14T16:32:05;10.80;74.50
19385;DHT22;9828;54.122;17.974;2023-03-14T16:37:26;10.80;99.90
19385;DHT22;9828;54.122;17.974;2023-03-14T16:42:47;10.80;99.90
19385;DHT22;9828;54.122;17.974;2023-03-14T16:48:28;10.70;99.90
19385;DHT22;9828;54.122;17.974;2023-03-14T16:53:50;10.60;99.90
19385;DHT22;9828;54.122;17.974;2023-03-14T16:59:11;10.50;99.90
19385;DHT22;9828;54.122;17.974;2023-03-14T17:04:32;10.40;99.90
19385;DHT22;9828;54.122;17.974;2023-03-14T17:09:53;10.40;99.90
19385;DHT22;9828;54.122;17.974;2023-03-14T17:15:24;10.30;99.90
19385;DHT22;9828;54.122;17.974;2023-03-14T17:20:46;10.40;99.90
19385;DHT22;9828;54.122;17.974;2023-03-14T17:26:07;10.30;99.90
19385;DHT22;9828;54.122;17.974;2023-03-14T17:31:29;10.10;99.90
19385;DHT22;9828;54.122;17.974;2023-03-14T17:36:50;10.00;99.90
19385;DHT22;9828;54.122;17.974;2023-03-14T17:42:11;9.90;99.90
19385;DHT22;9828;54.122;17.974;2023-03-14T17:47:32;9.90;99.90
19385;DHT22;9828;54.122;17.974;2023-03-14T17:52:53;9.80;99.90
19385;DHT22;9828;54.122;17.974;2023-03-14T17:58:15;9.80;99.90
19385;DHT22;9828;54.122;17.974;2023-03-14T18:03:36;9.80;99.90
19385;DHT22;9828;54.122;17.974;2023-03-14T18:08:58;9.90;99.90
19385;DHT22;9828;54.122;17.974;2023-03-14T18:14:20;9.80;99.90
19385;DHT22;9828;54.122;17.974;2023-03-14T18:19:41;9.90;99.90
19385;DHT22;9828;54.122;17.974;2023-03-14T18:25:02;9.90;99.90
19385;DHT22;9828;54.122;17.974;2023-03-14T18:30:24;9.90;99.90
19385;DHT22;9828;54.122;17.974;2023-03-14T18:35:45;9.90;99.90
19385;DHT22;9828;54.122;17.974;2023-03-14T18:41:08;9.80;99.90
19385;DHT22;9828;54.122;17.974;2023-03-14T18:46:30;9.80;99.90
19385;DHT22;9828;54.122;17.974;2023-03-14T18:51:51;9.80;99.90
19385;DHT22;9828;54.122;17.974;2023-03-14T18:57:12;9.70;99.90
19385;DHT22;9828;54.122;17.974;2023-03-14T19:02:34;9.50;99.90
19385;DHT22;9828;54.122;17.974;2023-03-14T19:07:55;8.60;99.90
19385;DHT22;9828;54.122;17.974;2023-03-14T19:18:40;7.30;99.90
19385;DHT22;9828;54.122;17.974;2023-03-14T19:29:24;6.10;99.90
19385;DHT22;9828;54.122;17.974;2023-03-14T19:34:45;5.70;99.90
19385;DHT22;9828;54.122;17.974;2023-03-14T19:45:30;4.90;99.90
19385;DHT22;9828;54.122;17.974;2023-03-14T19:50:53;4.60;99.90
19385;DHT22;9828;54.122;17.974;2023-03-14T19:56:14;4.40;99.90
19385;DHT22;9828;54.122;17.974;2023-03-14T20:01:35;4.30;99.90
19385;DHT22;9828;54.122;17.974;2023-03-14T20:06:58;4.40;99.90
19385;DHT22;9828;54.122;17.974;2023-03-14T20:12:19;4.30;99.90
19385;DHT22;9828;54.122;17.974;2023-03-14T20:17:40;4.20;99.90
19385;DHT22;9828;54.122;17.974;2023-03-14T20:23:01;4.10;99.90
19385;DHT22;9828;54.122;17.974;2023-03-14T20:28:24;4.10;99.90
19385;DHT22;9828;54.122;17.974;2023-03-14T20:33:45;4.10;99.90
19385;DHT22;9828;54.122;17.974;2023-03-14T20:39:06;4.10;99.90
19385;DHT22;9828;54.122;17.974;2023-03-14T20:44:27;4.00;99.90
19385;DHT22;9828;54.122;17.974;2023-03-14T20:49:48;4.00;99.90
19385;DHT22;9828;54.122;17.974;2023-03-14T20:55:10;3.90;99.90
19385;DHT22;9828;54.122;17.974;2023-03-14T21:00:31;3.70;99.90
19385;DHT22;9828;54.122;17.974;2023-03-14T21:11:13;3.60;99.90
19385;DHT22;9828;54.122;17.974;2023-03-14T21:16:34;3.60;99.90
19385;DHT22;9828;54.122;17.974;2023-03-14T21:22:00;3.50;99.90
19385;DHT22;9828;54.122;17.974;2023-03-14T21:27:22;3.40;99.90
19385;DHT22;9828;54.122;17.974;2023-03-14T21:32:43;3.40;99.90
19385;DHT22;9828;54.122;17.974;2023-03-14T21:38:04;3.40;99.90
19385;DHT22;9828;54.122;17.974;2023-03-14T21:43:26;3.50;99.90
19385;DHT22;9828;54.122;17.974;2023-03-14T21:48:47;3.40;99.90
19385;DHT22;9828;54.122;17.974;2023-03-14T21:54:08;3.50;99.90
19385;DHT22;9828;54.122;17.974;2023-03-14T21:59:32;3.60;99.90
19385;DHT22;9828;54.122;17.974;2023-03-14T22:04:53;3.50;99.90
19385;DHT22;9828;54.122;17.974;2023-03-14T22:10:15;3.60;99.90
19385;DHT22;9828;54.122;17.974;2023-03-14T22:15:36;3.60;99.90
19385;DHT22;9828;54.122;17.974;2023-03-14T22:20:57;3.60;99.90
19385;DHT22;9828;54.122;17.974;2023-03-14T22:26:18;3.60;99.90
19385;DHT22;9828;54.122;17.974;2023-03-14T22:31:40;3.70;99.90
19385;DHT22;9828;54.122;17.974;2023-03-14T22:37:03;3.70;99.90
19385;DHT22;9828;54.122;17.974;2023-03-14T22:42:25;3.70;99.90
19385;DHT22;9828;54.122;17.974;2023-03-14T22:47:45;3.80;99.90
19385;DHT22;9828;54.122;17.974;2023-03-14T22:53:07;3.70;99.90
19385;DHT22;9828;54.122;17.974;2023-03-14T22:58:28;3.70;99.90
19385;DHT22;9828;54.122;17.974;2023-03-14T23:03:49;3.80;99.90
19385;DHT22;9828;54.122;17.974;2023-03-14T23:09:11;3.70;99.90
19385;DHT22;9828;54.122;17.974;2023-03-14T23:14:32;3.70;99.90
19385;DHT22;9828;54.122;17.974;2023-03-14T23:19:53;3.60;99.90
19385;DHT22;9828;54.122;17.974;2023-03-14T23:25:14;3.60;99.90
19385;DHT22;9828;54.122;17.974;2023-03-14T23:30:38;3.70;99.90
19385;DHT22;9828;54.122;17.974;2023-03-14T23:36:00;3.70;99.90
19385;DHT22;9828;54.122;17.974;2023-03-14T23:41:24;3.70;99.90
19385;DHT22;9828;54.122;17.974;2023-03-14T23:46:45;3.60;99.90
19385;DHT22;9828;54.122;17.974;2023-03-14T23:52:07;3.60;99.90
19385;DHT22;9828;54.122;17.974;2023-03-14T23:57:28;3.50;99.90
